Gooderham, Canada
Current Conditions -  °F | °C
As of 5:00 AM on Thursday 29 Jan 2015 (Local Time) from CYQA Reporting Station
Overcast Overcast  
Wind Chill: -14°   Ceiling: 9000
Heat Index: -8°   Visibility: 9mi
Dew Point: -14°   Wind: 8mph
Humidity: 63%   Direction: 130°SE
Pressure: 30.07"   Gusts: NA
Location:  44.9°N, 78.38°W
Report Text: CYQA 291000Z AUTO 13007KT 9SM OVC090 M08/M14 A3007 RMK SLP202
Loading
Personal Weather Stations






























Interactive Weather Map New forecast layout! Learn more

10-Day Weather Forecast

Advertisements
Track Severe Weather on mobile